sensor_id;sensor_type;location;lat;lon;timestamp;temperature;humidity
75613;DHT22;64198;48.556;-2.934;2022-12-18T00:01:56;14.90;57.20
75613;DHT22;64198;48.556;-2.934;2022-12-18T00:04:24;14.90;57.20
75613;DHT22;64198;48.556;-2.934;2022-12-18T00:06:50;14.90;57.20
75613;DHT22;64198;48.556;-2.934;2022-12-18T00:09:16;14.90;57.20
75613;DHT22;64198;48.556;-2.934;2022-12-18T00:11:42;14.90;57.10
75613;DHT22;64198;48.556;-2.934;2022-12-18T00:14:11;14.90;57.20
75613;DHT22;64198;48.556;-2.934;2022-12-18T00:16:37;14.90;57.10
75613;DHT22;64198;48.556;-2.934;2022-12-18T00:19:04;14.90;57.10
75613;DHT22;64198;48.556;-2.934;2022-12-18T00:21:32;14.90;57.20
75613;DHT22;64198;48.556;-2.934;2022-12-18T00:23:58;14.90;57.10
75613;DHT22;64198;48.556;-2.934;2022-12-18T00:26:29;14.90;57.20
75613;DHT22;64198;48.556;-2.934;2022-12-18T00:28:58;14.90;57.10
75613;DHT22;64198;48.556;-2.934;2022-12-18T00:31:25;14.90;57.10
75613;DHT22;64198;48.556;-2.934;2022-12-18T00:33:51;14.90;57.10
75613;DHT22;64198;48.556;-2.934;2022-12-18T00:36:21;14.90;57.10
75613;DHT22;64198;48.556;-2.934;2022-12-18T00:38:48;14.90;57.10
75613;DHT22;64198;48.556;-2.934;2022-12-18T00:41:16;14.80;57.20
75613;DHT22;64198;48.556;-2.934;2022-12-18T00:44:02;14.90;57.20
75613;DHT22;64198;48.556;-2.934;2022-12-18T00:46:28;14.90;57.20
75613;DHT22;64198;48.556;-2.934;2022-12-18T00:48:54;14.90;57.20
75613;DHT22;64198;48.556;-2.934;2022-12-18T00:51:20;14.90;57.20
75613;DHT22;64198;48.556;-2.934;2022-12-18T00:53:46;14.90;57.20
75613;DHT22;64198;48.556;-2.934;2022-12-18T00:56:12;14.90;57.10
75613;DHT22;64198;48.556;-2.934;2022-12-18T00:58:38;14.90;57.10
75613;DHT22;64198;48.556;-2.934;2022-12-18T01:01:04;14.90;57.20
75613;DHT22;64198;48.556;-2.934;2022-12-18T01:03:30;14.80;57.20
75613;DHT22;64198;48.556;-2.934;2022-12-18T01:05:56;14.80;57.20
75613;DHT22;64198;48.556;-2.934;2022-12-18T01:08:22;14.90;57.20
75613;DHT22;64198;48.556;-2.934;2022-12-18T01:10:48;14.90;57.10
75613;DHT22;64198;48.556;-2.934;2022-12-18T01:13:14;14.90;57.20
75613;DHT22;64198;48.556;-2.934;2022-12-18T01:15:40;14.90;57.10
75613;DHT22;64198;48.556;-2.934;2022-12-18T01:18:06;14.90;57.20
75613;DHT22;64198;48.556;-2.934;2022-12-18T01:20:32;14.90;57.10
75613;DHT22;64198;48.556;-2.934;2022-12-18T01:22:58;14.80;57.10
75613;DHT22;64198;48.556;-2.934;2022-12-18T01:25:24;14.80;57.20
75613;DHT22;64198;48.556;-2.934;2022-12-18T01:27:50;14.90;57.20
75613;DHT22;64198;48.556;-2.934;2022-12-18T01:30:16;14.90;57.20
75613;DHT22;64198;48.556;-2.934;2022-12-18T01:32:42;14.80;57.20
75613;DHT22;64198;48.556;-2.934;2022-12-18T01:35:08;14.80;57.20
75613;DHT22;64198;48.556;-2.934;2022-12-18T01:37:34;14.80;57.20
75613;DHT22;64198;48.556;-2.934;2022-12-18T01:39:59;14.80;57.20
75613;DHT22;64198;48.556;-2.934;2022-12-18T01:42:25;14.90;57.10
75613;DHT22;64198;48.556;-2.934;2022-12-18T01:45:01;14.80;57.20
75613;DHT22;64198;48.556;-2.934;2022-12-18T01:49:59;14.80;57.20
75613;DHT22;64198;48.556;-2.934;2022-12-18T01:52:28;14.80;57.20
75613;DHT22;64198;48.556;-2.934;2022-12-18T01:54:55;14.80;57.20
75613;DHT22;64198;48.556;-2.934;2022-12-18T01:57:22;14.80;57.20
75613;DHT22;64198;48.556;-2.934;2022-12-18T01:59:52;14.80;57.20
75613;DHT22;64198;48.556;-2.934;2022-12-18T02:02:18;14.80;57.10
75613;DHT22;64198;48.556;-2.934;2022-12-18T02:04:44;14.80;57.20
75613;DHT22;64198;48.556;-2.934;2022-12-18T02:10:19;14.80;57.20
75613;DHT22;64198;48.556;-2.934;2022-12-18T02:15:50;14.80;57.20
75613;DHT22;64198;48.556;-2.934;2022-12-18T02:18:25;14.80;57.20
75613;DHT22;64198;48.556;-2.934;2022-12-18T02:20:54;14.80;57.20
75613;DHT22;64198;48.556;-2.934;2022-12-18T02:26:26;14.80;57.20
75613;DHT22;64198;48.556;-2.934;2022-12-18T02:28:59;14.80;57.20
75613;DHT22;64198;48.556;-2.934;2022-12-18T02:31:28;14.80;57.20
75613;DHT22;64198;48.556;-2.934;2022-12-18T02:34:01;14.80;57.20
75613;DHT22;64198;48.556;-2.934;2022-12-18T02:36:28;14.80;57.20
75613;DHT22;64198;48.556;-2.934;2022-12-18T02:38:57;14.80;57.20
75613;DHT22;64198;48.556;-2.934;2022-12-18T02:41:25;14.80;57.20
75613;DHT22;64198;48.556;-2.934;2022-12-18T02:43:59;14.80;57.30
75613;DHT22;64198;48.556;-2.934;2022-12-18T02:49:12;14.80;57.20
75613;DHT22;64198;48.556;-2.934;2022-12-18T02:57:45;14.80;57.30
75613;DHT22;64198;48.556;-2.934;2022-12-18T03:00:19;14.80;57.30
75613;DHT22;64198;48.556;-2.934;2022-12-18T03:02:48;14.80;57.30
75613;DHT22;64198;48.556;-2.934;2022-12-18T03:05:23;14.80;57.20
75613;DHT22;64198;48.556;-2.934;2022-12-18T03:08:14;14.80;57.30
75613;DHT22;64198;48.556;-2.934;2022-12-18T03:11:15;14.80;57.30
75613;DHT22;64198;48.556;-2.934;2022-12-18T03:13:46;14.80;57.30
75613;DHT22;64198;48.556;-2.934;2022-12-18T03:16:27;14.80;57.30
75613;DHT22;64198;48.556;-2.934;2022-12-18T03:19:14;14.80;57.30
75613;DHT22;64198;48.556;-2.934;2022-12-18T03:21:49;14.80;57.30
75613;DHT22;64198;48.556;-2.934;2022-12-18T03:24:17;14.80;57.30
75613;DHT22;64198;48.556;-2.934;2022-12-18T03:26:46;14.80;57.40
75613;DHT22;64198;48.556;-2.934;2022-12-18T03:29:22;14.80;57.30
75613;DHT22;64198;48.556;-2.934;2022-12-18T03:31:58;14.80;57.40
75613;DHT22;64198;48.556;-2.934;2022-12-18T03:34:30;14.80;57.40
75613;DHT22;64198;48.556;-2.934;2022-12-18T03:36:57;14.80;57.40
75613;DHT22;64198;48.556;-2.934;2022-12-18T03:39:23;14.80;57.40
75613;DHT22;64198;48.556;-2.934;2022-12-18T03:47:32;14.80;57.40
75613;DHT22;64198;48.556;-2.934;2022-12-18T03:52:39;14.80;57.40
75613;DHT22;64198;48.556;-2.934;2022-12-18T03:55:08;14.80;57.40
75613;DHT22;64198;48.556;-2.934;2022-12-18T03:57:35;14.80;57.40
75613;DHT22;64198;48.556;-2.934;2022-12-18T04:00:18;14.80;57.40
75613;DHT22;64198;48.556;-2.934;2022-12-18T04:02:52;14.80;57.40
75613;DHT22;64198;48.556;-2.934;2022-12-18T04:05:20;14.80;57.50
75613;DHT22;64198;48.556;-2.934;2022-12-18T04:07:48;14.80;57.50
75613;DHT22;64198;48.556;-2.934;2022-12-18T04:10:16;14.80;57.50
75613;DHT22;64198;48.556;-2.934;2022-12-18T04:12:42;14.80;57.40
75613;DHT22;64198;48.556;-2.934;2022-12-18T04:15:09;14.80;57.40
75613;DHT22;64198;48.556;-2.934;2022-12-18T04:17:36;14.80;57.40
75613;DHT22;64198;48.556;-2.934;2022-12-18T04:20:02;14.80;57.40
75613;DHT22;64198;48.556;-2.934;2022-12-18T04:22:28;14.80;57.40
75613;DHT22;64198;48.556;-2.934;2022-12-18T04:24:54;14.80;57.40
75613;DHT22;64198;48.556;-2.934;2022-12-18T04:27:19;14.80;57.40
75613;DHT22;64198;48.556;-2.934;2022-12-18T04:29:45;14.80;57.40
75613;DHT22;64198;48.556;-2.934;2022-12-18T04:32:11;14.80;57.40
75613;DHT22;64198;48.556;-2.934;2022-12-18T04:34:37;14.80;57.40
75613;DHT22;64198;48.556;-2.934;2022-12-18T04:37:02;14.80;57.30
75613;DHT22;64198;48.556;-2.934;2022-12-18T04:39:28;14.80;57.30
75613;DHT22;64198;48.556;-2.934;2022-12-18T04:41:54;14.80;57.30
75613;DHT22;64198;48.556;-2.934;2022-12-18T04:44:20;14.80;57.30
75613;DHT22;64198;48.556;-2.934;2022-12-18T04:46:45;14.80;57.30
75613;DHT22;64198;48.556;-2.934;2022-12-18T04:49:11;14.80;57.30
75613;DHT22;64198;48.556;-2.934;2022-12-18T04:51:38;14.80;57.30
75613;DHT22;64198;48.556;-2.934;2022-12-18T04:54:04;14.80;57.30
75613;DHT22;64198;48.556;-2.934;2022-12-18T04:56:31;14.80;57.30
75613;DHT22;64198;48.556;-2.934;2022-12-18T04:58:57;14.70;57.30
75613;DHT22;64198;48.556;-2.934;2022-12-18T05:01:23;14.80;57.30
75613;DHT22;64198;48.556;-2.934;2022-12-18T05:03:48;14.80;57.30
75613;DHT22;64198;48.556;-2.934;2022-12-18T05:06:14;14.80;57.30
75613;DHT22;64198;48.556;-2.934;2022-12-18T05:08:40;14.80;57.30
75613;DHT22;64198;48.556;-2.934;2022-12-18T05:11:09;14.80;57.20
75613;DHT22;64198;48.556;-2.934;2022-12-18T05:13:35;14.80;57.20
75613;DHT22;64198;48.556;-2.934;2022-12-18T05:16:02;14.80;57.30
75613;DHT22;64198;48.556;-2.934;2022-12-18T05:18:29;14.80;57.20
75613;DHT22;64198;48.556;-2.934;2022-12-18T05:20:55;14.80;57.30
75613;DHT22;64198;48.556;-2.934;2022-12-18T05:23:22;14.70;57.20
75613;DHT22;64198;48.556;-2.934;2022-12-18T05:25:54;14.70;57.30
75613;DHT22;64198;48.556;-2.934;2022-12-18T05:28:21;14.80;57.30
75613;DHT22;64198;48.556;-2.934;2022-12-18T05:30:48;14.70;57.20
75613;DHT22;64198;48.556;-2.934;2022-12-18T05:33:15;14.70;57.20
75613;DHT22;64198;48.556;-2.934;2022-12-18T05:35:41;14.70;57.20
75613;DHT22;64198;48.556;-2.934;2022-12-18T05:38:06;14.70;57.20
75613;DHT22;64198;48.556;-2.934;2022-12-18T05:40:32;14.70;57.20
75613;DHT22;64198;48.556;-2.934;2022-12-18T05:42:58;14.70;57.20
75613;DHT22;64198;48.556;-2.934;2022-12-18T05:45:24;14.80;57.20
75613;DHT22;64198;48.556;-2.934;2022-12-18T05:47:50;14.70;57.20
75613;DHT22;64198;48.556;-2.934;2022-12-18T05:50:15;14.70;57.10
75613;DHT22;64198;48.556;-2.934;2022-12-18T05:52:41;14.70;57.10
75613;DHT22;64198;48.556;-2.934;2022-12-18T05:55:07;14.70;57.10
75613;DHT22;64198;48.556;-2.934;2022-12-18T05:57:33;14.70;57.10
75613;DHT22;64198;48.556;-2.934;2022-12-18T05:59:59;14.70;57.10
75613;DHT22;64198;48.556;-2.934;2022-12-18T06:02:25;14.70;57.00
75613;DHT22;64198;48.556;-2.934;2022-12-18T06:04:50;14.70;57.10
75613;DHT22;64198;48.556;-2.934;2022-12-18T06:07:16;14.70;57.00
75613;DHT22;64198;48.556;-2.934;2022-12-18T06:09:42;14.70;56.90
75613;DHT22;64198;48.556;-2.934;2022-12-18T06:12:09;14.70;56.90
75613;DHT22;64198;48.556;-2.934;2022-12-18T06:14:34;14.70;56.90
75613;DHT22;64198;48.556;-2.934;2022-12-18T06:17:00;14.70;56.90
75613;DHT22;64198;48.556;-2.934;2022-12-18T06:19:26;14.70;56.80
75613;DHT22;64198;48.556;-2.934;2022-12-18T06:21:52;14.70;56.80
75613;DHT22;64198;48.556;-2.934;2022-12-18T06:24:18;14.70;56.80
75613;DHT22;64198;48.556;-2.934;2022-12-18T06:26:44;14.70;56.70
75613;DHT22;64198;48.556;-2.934;2022-12-18T06:29:10;14.70;56.70
75613;DHT22;64198;48.556;-2.934;2022-12-18T06:31:36;14.70;56.70
75613;DHT22;64198;48.556;-2.934;2022-12-18T06:34:03;14.70;56.70
75613;DHT22;64198;48.556;-2.934;2022-12-18T06:36:32;14.70;56.80
75613;DHT22;64198;48.556;-2.934;2022-12-18T06:38:58;14.70;56.70
75613;DHT22;64198;48.556;-2.934;2022-12-18T06:41:24;14.70;56.70
75613;DHT22;64198;48.556;-2.934;2022-12-18T06:43:50;14.70;56.70
75613;DHT22;64198;48.556;-2.934;2022-12-18T06:46:16;14.70;56.70
75613;DHT22;64198;48.556;-2.934;2022-12-18T06:48:42;14.70;56.70
75613;DHT22;64198;48.556;-2.934;2022-12-18T06:51:08;14.70;56.60
75613;DHT22;64198;48.556;-2.934;2022-12-18T06:53:33;14.70;56.60
75613;DHT22;64198;48.556;-2.934;2022-12-18T06:56:01;14.70;56.60
75613;DHT22;64198;48.556;-2.934;2022-12-18T06:58:27;14.70;56.60
75613;DHT22;64198;48.556;-2.934;2022-12-18T07:00:53;14.70;56.60
75613;DHT22;64198;48.556;-2.934;2022-12-18T07:03:19;14.70;56.60
75613;DHT22;64198;48.556;-2.934;2022-12-18T07:05:44;14.70;56.70
75613;DHT22;64198;48.556;-2.934;2022-12-18T07:08:10;14.70;56.60
75613;DHT22;64198;48.556;-2.934;2022-12-18T07:10:43;14.70;56.60
75613;DHT22;64198;48.556;-2.934;2022-12-18T07:13:09;14.70;56.70
75613;DHT22;64198;48.556;-2.934;2022-12-18T07:15:35;14.80;56.60
75613;DHT22;64198;48.556;-2.934;2022-12-18T07:18:01;14.70;56.60
75613;DHT22;64198;48.556;-2.934;2022-12-18T07:20:27;14.70;56.70
75613;DHT22;64198;48.556;-2.934;2022-12-18T07:22:53;14.70;56.90
75613;DHT22;64198;48.556;-2.934;2022-12-18T07:25:19;14.70;57.00
75613;DHT22;64198;48.556;-2.934;2022-12-18T07:27:44;14.70;57.10
75613;DHT22;64198;48.556;-2.934;2022-12-18T07:30:10;14.70;57.10
75613;DHT22;64198;48.556;-2.934;2022-12-18T07:32:36;14.80;57.10
75613;DHT22;64198;48.556;-2.934;2022-12-18T07:35:02;14.70;57.50
75613;DHT22;64198;48.556;-2.934;2022-12-18T07:37:28;14.80;57.70
75613;DHT22;64198;48.556;-2.934;2022-12-18T07:39:54;14.80;58.00
75613;DHT22;64198;48.556;-2.934;2022-12-18T07:42:20;14.80;58.30
75613;DHT22;64198;48.556;-2.934;2022-12-18T07:45:01;14.90;58.50
75613;DHT22;64198;48.556;-2.934;2022-12-18T07:47:28;14.90;58.60
75613;DHT22;64198;48.556;-2.934;2022-12-18T07:49:56;14.90;58.90
75613;DHT22;64198;48.556;-2.934;2022-12-18T07:52:22;14.90;58.90
75613;DHT22;64198;48.556;-2.934;2022-12-18T07:54:48;14.90;59.00
75613;DHT22;64198;48.556;-2.934;2022-12-18T07:57:16;15.00;59.10
75613;DHT22;64198;48.556;-2.934;2022-12-18T07:59:42;15.00;58.90
75613;DHT22;64198;48.556;-2.934;2022-12-18T08:02:08;15.00;58.40
75613;DHT22;64198;48.556;-2.934;2022-12-18T08:04:36;15.00;58.30
75613;DHT22;64198;48.556;-2.934;2022-12-18T08:07:03;14.90;58.20
75613;DHT22;64198;48.556;-2.934;2022-12-18T08:09:28;14.90;58.20
75613;DHT22;64198;48.556;-2.934;2022-12-18T08:11:54;14.90;58.20
75613;DHT22;64198;48.556;-2.934;2022-12-18T08:14:20;14.90;58.30
75613;DHT22;64198;48.556;-2.934;2022-12-18T08:16:46;15.00;58.30
75613;DHT22;64198;48.556;-2.934;2022-12-18T08:19:11;15.00;58.20
75613;DHT22;64198;48.556;-2.934;2022-12-18T08:21:40;15.00;58.30
75613;DHT22;64198;48.556;-2.934;2022-12-18T08:24:06;15.00;58.90
75613;DHT22;64198;48.556;-2.934;2022-12-18T08:26:32;15.00;58.40
75613;DHT22;64198;48.556;-2.934;2022-12-18T08:28:59;15.00;58.20
75613;DHT22;64198;48.556;-2.934;2022-12-18T08:31:27;14.90;58.20
75613;DHT22;64198;48.556;-2.934;2022-12-18T08:33:54;14.90;58.00
75613;DHT22;64198;48.556;-2.934;2022-12-18T08:36:20;14.90;58.00
75613;DHT22;64198;48.556;-2.934;2022-12-18T08:38:46;14.90;58.10
75613;DHT22;64198;48.556;-2.934;2022-12-18T08:41:14;14.90;58.10
75613;DHT22;64198;48.556;-2.934;2022-12-18T08:43:41;14.90;58.20
75613;DHT22;64198;48.556;-2.934;2022-12-18T08:46:30;14.90;58.20
75613;DHT22;64198;48.556;-2.934;2022-12-18T08:48:57;14.90;58.10
75613;DHT22;64198;48.556;-2.934;2022-12-18T08:51:23;14.90;58.10
75613;DHT22;64198;48.556;-2.934;2022-12-18T08:53:49;14.90;58.20
75613;DHT22;64198;48.556;-2.934;2022-12-18T08:56:15;14.90;58.10
75613;DHT22;64198;48.556;-2.934;2022-12-18T08:58:41;14.90;58.10
75613;DHT22;64198;48.556;-2.934;2022-12-18T09:01:10;14.90;58.10
75613;DHT22;64198;48.556;-2.934;2022-12-18T09:03:36;14.90;58.00
75613;DHT22;64198;48.556;-2.934;2022-12-18T09:06:02;14.90;58.20
75613;DHT22;64198;48.556;-2.934;2022-12-18T09:08:28;15.00;58.30
75613;DHT22;64198;48.556;-2.934;2022-12-18T09:10:54;15.00;58.50
75613;DHT22;64198;48.556;-2.934;2022-12-18T09:13:20;15.00;58.80
75613;DHT22;64198;48.556;-2.934;2022-12-18T09:15:50;15.00;59.00
75613;DHT22;64198;48.556;-2.934;2022-12-18T09:18:18;15.00;59.00
75613;DHT22;64198;48.556;-2.934;2022-12-18T09:20:44;15.00;59.10
75613;DHT22;64198;48.556;-2.934;2022-12-18T09:23:11;15.00;59.00
75613;DHT22;64198;48.556;-2.934;2022-12-18T09:25:37;15.00;58.70
75613;DHT22;64198;48.556;-2.934;2022-12-18T09:28:06;15.00;58.50
75613;DHT22;64198;48.556;-2.934;2022-12-18T09:30:32;15.00;58.50
75613;DHT22;64198;48.556;-2.934;2022-12-18T09:33:00;15.00;58.50
75613;DHT22;64198;48.556;-2.934;2022-12-18T09:35:27;15.00;58.50
75613;DHT22;64198;48.556;-2.934;2022-12-18T09:37:53;15.00;58.60
75613;DHT22;64198;48.556;-2.934;2022-12-18T09:40:22;15.00;58.50
75613;DHT22;64198;48.556;-2.934;2022-12-18T09:42:54;15.00;58.40
75613;DHT22;64198;48.556;-2.934;2022-12-18T09:45:21;15.00;58.40
75613;DHT22;64198;48.556;-2.934;2022-12-18T09:47:48;15.00;58.50
75613;DHT22;64198;48.556;-2.934;2022-12-18T09:50:34;15.00;58.50
75613;DHT22;64198;48.556;-2.934;2022-12-18T09:53:10;15.00;58.50
75613;DHT22;64198;48.556;-2.934;2022-12-18T09:55:41;15.00;58.40
75613;DHT22;64198;48.556;-2.934;2022-12-18T10:00:42;15.00;58.30
75613;DHT22;64198;48.556;-2.934;2022-12-18T10:03:13;15.00;58.40
75613;DHT22;64198;48.556;-2.934;2022-12-18T10:06:06;15.00;58.50
75613;DHT22;64198;48.556;-2.934;2022-12-18T10:08:45;15.00;58.70
75613;DHT22;64198;48.556;-2.934;2022-12-18T10:11:34;15.00;58.80
75613;DHT22;64198;48.556;-2.934;2022-12-18T10:20:00;15.10;58.90
75613;DHT22;64198;48.556;-2.934;2022-12-18T10:22:51;15.20;58.90
75613;DHT22;64198;48.556;-2.934;2022-12-18T10:27:58;15.20;58.90
75613;DHT22;64198;48.556;-2.934;2022-12-18T10:30:27;15.20;58.80
75613;DHT22;64198;48.556;-2.934;2022-12-18T10:32:53;15.20;58.90
75613;DHT22;64198;48.556;-2.934;2022-12-18T10:35:24;15.20;58.90
75613;DHT22;64198;48.556;-2.934;2022-12-18T10:41:06;15.20;58.60
75613;DHT22;64198;48.556;-2.934;2022-12-18T10:43:39;15.20;58.70
75613;DHT22;64198;48.556;-2.934;2022-12-18T10:51:07;15.20;59.10
75613;DHT22;64198;48.556;-2.934;2022-12-18T10:53:35;15.30;59.10
75613;DHT22;64198;48.556;-2.934;2022-12-18T10:56:04;15.30;59.20
75613;DHT22;64198;48.556;-2.934;2022-12-18T10:58:32;15.60;59.20
75613;DHT22;64198;48.556;-2.934;2022-12-18T11:01:10;15.80;58.30
75613;DHT22;64198;48.556;-2.934;2022-12-18T11:03:59;16.00;57.90
75613;DHT22;64198;48.556;-2.934;2022-12-18T11:06:25;16.00;58.20
75613;DHT22;64198;48.556;-2.934;2022-12-18T11:09:03;16.00;58.00
75613;DHT22;64198;48.556;-2.934;2022-12-18T11:11:29;16.10;57.90
75613;DHT22;64198;48.556;-2.934;2022-12-18T11:16:26;16.10;57.60
75613;DHT22;64198;48.556;-2.934;2022-12-18T11:18:52;16.10;57.70
75613;DHT22;64198;48.556;-2.934;2022-12-18T11:21:18;16.10;57.20
75613;DHT22;64198;48.556;-2.934;2022-12-18T11:23:51;16.10;57.10
75613;DHT22;64198;48.556;-2.934;2022-12-18T11:26:18;16.10;57.10
75613;DHT22;64198;48.556;-2.934;2022-12-18T11:28:51;16.10;57.20
75613;DHT22;64198;48.556;-2.934;2022-12-18T11:31:29;16.20;57.10
75613;DHT22;64198;48.556;-2.934;2022-12-18T11:36:36;16.30;57.00
75613;DHT22;64198;48.556;-2.934;2022-12-18T11:39:18;16.30;57.00
75613;DHT22;64198;48.556;-2.934;2022-12-18T11:47:30;16.20;56.90
75613;DHT22;64198;48.556;-2.934;2022-12-18T11:50:03;16.30;56.90
75613;DHT22;64198;48.556;-2.934;2022-12-18T11:52:39;16.30;56.90
75613;DHT22;64198;48.556;-2.934;2022-12-18T11:55:15;16.30;56.90
75613;DHT22;64198;48.556;-2.934;2022-12-18T11:58:16;16.20;56.90
75613;DHT22;64198;48.556;-2.934;2022-12-18T12:00:54;16.30;56.90
75613;DHT22;64198;48.556;-2.934;2022-12-18T12:03:39;16.30;56.80
75613;DHT22;64198;48.556;-2.934;2022-12-18T12:14:37;16.30;56.30
75613;DHT22;64198;48.556;-2.934;2022-12-18T12:34:13;16.40;55.50
75613;DHT22;64198;48.556;-2.934;2022-12-18T12:39:16;16.40;55.50
75613;DHT22;64198;48.556;-2.934;2022-12-18T12:41:45;16.40;55.50
75613;DHT22;64198;48.556;-2.934;2022-12-18T12:44:45;16.40;55.50
75613;DHT22;64198;48.556;-2.934;2022-12-18T12:47:29;16.40;55.50
75613;DHT22;64198;48.556;-2.934;2022-12-18T12:50:02;16.40;55.50
75613;DHT22;64198;48.556;-2.934;2022-12-18T12:52:42;16.40;55.70
75613;DHT22;64198;48.556;-2.934;2022-12-18T12:55:18;16.40;55.60
75613;DHT22;64198;48.556;-2.934;2022-12-18T12:58:01;16.30;55.80
75613;DHT22;64198;48.556;-2.934;2022-12-18T13:00:39;16.30;55.80
75613;DHT22;64198;48.556;-2.934;2022-12-18T13:05:58;16.30;55.90
75613;DHT22;64198;48.556;-2.934;2022-12-18T13:08:30;16.30;55.70
75613;DHT22;64198;48.556;-2.934;2022-12-18T13:10:58;16.30;55.70
75613;DHT22;64198;48.556;-2.934;2022-12-18T13:13:51;16.20;55.70
75613;DHT22;64198;48.556;-2.934;2022-12-18T13:16:23;16.20;55.70
75613;DHT22;64198;48.556;-2.934;2022-12-18T13:18:52;16.30;55.70
75613;DHT22;64198;48.556;-2.934;2022-12-18T13:21:28;16.20;55.70
75613;DHT22;64198;48.556;-2.934;2022-12-18T13:23:54;16.20;55.60
75613;DHT22;64198;48.556;-2.934;2022-12-18T13:28:53;16.20;55.60
75613;DHT22;64198;48.556;-2.934;2022-12-18T13:34:20;16.20;55.50
75613;DHT22;64198;48.556;-2.934;2022-12-18T13:36:47;16.20;55.50
75613;DHT22;64198;48.556;-2.934;2022-12-18T13:41:48;16.20;55.70
75613;DHT22;64198;48.556;-2.934;2022-12-18T13:47:03;16.20;55.50
75613;DHT22;64198;48.556;-2.934;2022-12-18T13:49:39;16.20;55.60
75613;DHT22;64198;48.556;-2.934;2022-12-18T13:52:20;16.20;55.60
75613;DHT22;64198;48.556;-2.934;2022-12-18T13:54:52;16.20;55.60
75613;DHT22;64198;48.556;-2.934;2022-12-18T13:59:59;16.10;55.60
75613;DHT22;64198;48.556;-2.934;2022-12-18T14:02:45;16.10;55.70
75613;DHT22;64198;48.556;-2.934;2022-12-18T14:07:50;16.20;55.70
75613;DHT22;64198;48.556;-2.934;2022-12-18T14:10:17;16.10;55.70
75613;DHT22;64198;48.556;-2.934;2022-12-18T14:12:49;16.10;55.60
75613;DHT22;64198;48.556;-2.934;2022-12-18T14:20:24;16.10;55.80
75613;DHT22;64198;48.556;-2.934;2022-12-18T14:22:50;16.10;55.80
75613;DHT22;64198;48.556;-2.934;2022-12-18T14:25:18;16.10;55.80
75613;DHT22;64198;48.556;-2.934;2022-12-18T14:30:38;16.10;55.80
75613;DHT22;64198;48.556;-2.934;2022-12-18T14:33:10;16.10;55.80
75613;DHT22;64198;48.556;-2.934;2022-12-18T14:36:00;16.10;55.80
75613;DHT22;64198;48.556;-2.934;2022-12-18T14:38:34;16.10;55.60
75613;DHT22;64198;48.556;-2.934;2022-12-18T14:41:12;16.10;55.80
75613;DHT22;64198;48.556;-2.934;2022-12-18T14:43:40;16.10;55.80
75613;DHT22;64198;48.556;-2.934;2022-12-18T14:46:27;16.10;55.70
75613;DHT22;64198;48.556;-2.934;2022-12-18T14:48:53;16.10;55.70
75613;DHT22;64198;48.556;-2.934;2022-12-18T14:51:22;16.10;55.80
75613;DHT22;64198;48.556;-2.934;2022-12-18T14:54:03;16.10;55.80
75613;DHT22;64198;48.556;-2.934;2022-12-18T14:56:34;16.20;55.90
75613;DHT22;64198;48.556;-2.934;2022-12-18T14:59:03;16.20;56.00
75613;DHT22;64198;48.556;-2.934;2022-12-18T15:01:33;16.20;56.10
75613;DHT22;64198;48.556;-2.934;2022-12-18T15:04:00;16.20;56.10
75613;DHT22;64198;48.556;-2.934;2022-12-18T15:06:36;16.20;56.10
75613;DHT22;64198;48.556;-2.934;2022-12-18T15:09:22;16.20;56.20
75613;DHT22;64198;48.556;-2.934;2022-12-18T15:11:48;16.10;56.20
75613;DHT22;64198;48.556;-2.934;2022-12-18T15:16:58;16.10;56.20
75613;DHT22;64198;48.556;-2.934;2022-12-18T15:19:37;16.20;56.10
75613;DHT22;64198;48.556;-2.934;2022-12-18T15:22:04;16.20;56.10
75613;DHT22;64198;48.556;-2.934;2022-12-18T15:24:32;16.20;56.10
75613;DHT22;64198;48.556;-2.934;2022-12-18T15:26:58;16.20;56.10
75613;DHT22;64198;48.556;-2.934;2022-12-18T15:29:25;16.20;56.20
75613;DHT22;64198;48.556;-2.934;2022-12-18T15:32:05;16.20;56.10
75613;DHT22;64198;48.556;-2.934;2022-12-18T15:34:41;16.20;56.10
75613;DHT22;64198;48.556;-2.934;2022-12-18T15:37:07;16.20;56.10
75613;DHT22;64198;48.556;-2.934;2022-12-18T15:39:33;16.20;56.10
75613;DHT22;64198;48.556;-2.934;2022-12-18T15:42:01;16.20;56.10
75613;DHT22;64198;48.556;-2.934;2022-12-18T15:44:46;16.20;56.10
75613;DHT22;64198;48.556;-2.934;2022-12-18T15:47:12;16.20;56.10
75613;DHT22;64198;48.556;-2.934;2022-12-18T15:49:39;16.20;56.10
75613;DHT22;64198;48.556;-2.934;2022-12-18T15:52:05;16.20;56.10
75613;DHT22;64198;48.556;-2.934;2022-12-18T15:54:31;16.20;56.10
75613;DHT22;64198;48.556;-2.934;2022-12-18T15:57:16;16.20;56.10
75613;DHT22;64198;48.556;-2.934;2022-12-18T15:59:55;16.20;56.20
75613;DHT22;64198;48.556;-2.934;2022-12-18T16:02:23;16.20;56.20
75613;DHT22;64198;48.556;-2.934;2022-12-18T16:04:51;16.20;56.10
75613;DHT22;64198;48.556;-2.934;2022-12-18T16:07:18;16.20;56.10
75613;DHT22;64198;48.556;-2.934;2022-12-18T16:09:47;16.30;56.10
75613;DHT22;64198;48.556;-2.934;2022-12-18T16:12:21;16.30;56.10
75613;DHT22;64198;48.556;-2.934;2022-12-18T16:14:48;16.20;56.20
75613;DHT22;64198;48.556;-2.934;2022-12-18T16:17:14;16.20;56.20
75613;DHT22;64198;48.556;-2.934;2022-12-18T16:19:43;16.20;56.20
75613;DHT22;64198;48.556;-2.934;2022-12-18T16:22:22;16.20;56.30
75613;DHT22;64198;48.556;-2.934;2022-12-18T16:24:50;16.10;56.30
75613;DHT22;64198;48.556;-2.934;2022-12-18T16:27:16;16.10;56.50
75613;DHT22;64198;48.556;-2.934;2022-12-18T16:29:42;16.00;56.50
75613;DHT22;64198;48.556;-2.934;2022-12-18T16:32:16;16.00;56.50
75613;DHT22;64198;48.556;-2.934;2022-12-18T16:34:42;16.00;56.60
75613;DHT22;64198;48.556;-2.934;2022-12-18T16:37:09;16.00;56.70
75613;DHT22;64198;48.556;-2.934;2022-12-18T16:39:37;16.00;56.70
75613;DHT22;64198;48.556;-2.934;2022-12-18T16:42:13;16.00;56.80
75613;DHT22;64198;48.556;-2.934;2022-12-18T16:44:40;16.00;56.70
75613;DHT22;64198;48.556;-2.934;2022-12-18T16:47:06;16.00;56.70
75613;DHT22;64198;48.556;-2.934;2022-12-18T16:49:32;16.00;56.80
75613;DHT22;64198;48.556;-2.934;2022-12-18T16:52:00;16.00;56.80
75613;DHT22;64198;48.556;-2.934;2022-12-18T16:54:26;16.00;56.80
75613;DHT22;64198;48.556;-2.934;2022-12-18T16:56:55;16.00;56.80
75613;DHT22;64198;48.556;-2.934;2022-12-18T16:59:21;16.10;57.30
75613;DHT22;64198;48.556;-2.934;2022-12-18T17:01:47;16.10;57.90
75613;DHT22;64198;48.556;-2.934;2022-12-18T17:04:14;16.10;57.60
75613;DHT22;64198;48.556;-2.934;2022-12-18T17:06:41;16.10;57.60
75613;DHT22;64198;48.556;-2.934;2022-12-18T17:09:11;16.10;57.70
75613;DHT22;64198;48.556;-2.934;2022-12-18T17:11:38;16.10;57.60
75613;DHT22;64198;48.556;-2.934;2022-12-18T17:14:09;16.10;57.60
75613;DHT22;64198;48.556;-2.934;2022-12-18T17:16:35;16.10;57.70
75613;DHT22;64198;48.556;-2.934;2022-12-18T17:19:02;16.10;57.60
75613;DHT22;64198;48.556;-2.934;2022-12-18T17:21:29;16.10;57.70
75613;DHT22;64198;48.556;-2.934;2022-12-18T17:23:55;16.20;57.60
75613;DHT22;64198;48.556;-2.934;2022-12-18T17:26:23;16.20;57.70